Time;durP1;ratioP1;P1;durP2;ratioP2;P2;SDS_P1;SDS_P2;PMS_P1;PMS_P2;Temp;Humidity;BMP_temperature;BMP_pressure;BME280_temperature;BME280_humidity;BME280_pressure;Samples;Min_cycle;Max_cycle;Signal;HPM_P1;HPM_P2
2022/08/08 00:01:59;;;;;;;;;;;;;;;;;;5071148;28;20336;-76
2022/08/08 00:04:25;;;;;;;;;;;;;;;;;;5051635;28;19920;-76
2022/08/08 00:06:50;;;;;;;;;;;;;;;;;;5050006;28;20289;-76
2022/08/08 00:09:15;;;;;;;;;;;;;;;;;;5031837;28;20382;-76
2022/08/08 00:11:40;;;;;;;;;;;;;;;;;;5051485;28;19920;-76
2022/08/08 00:14:05;;;;;;;;;;;;;;;;;;5030136;28;19924;-77
2022/08/08 00:16:30;;;;;;;;;;;;;;;;;;5030593;28;19987;-76
2022/08/08 00:18:55;;;;;;;;;;;;;;;;;;5033638;28;19917;-76
2022/08/08 00:21:21;;;;;;;;;;;;;;;;;;5030287;28;20331;-76
2022/08/08 00:23:46;;;;;;;;;;;;;;;;;;5049148;28;19916;-76
2022/08/08 00:26:11;;;;;;;;;;;;;;;;;;5049199;28;20821;-76
2022/08/08 00:28:36;;;;;;;;;;;;;;;;;;5047911;28;19913;-76
2022/08/08 00:31:01;;;;;;;;;;;;;;;;;;5033068;28;19913;-76
2022/08/08 00:33:26;;;;;;;;;;;;;;;;;;5032702;28;19913;-77
2022/08/08 00:35:51;;;;;;;;;;;;;;;;;;5050035;28;19997;-78
2022/08/08 00:38:17;;;;;;;;;;;;;;;;;;5054837;28;20280;-76
2022/08/08 00:40:42;;;;;;;;;;;;;;;;;;5037327;28;19909;-76
2022/08/08 00:43:07;;;;;;;;;;;;;;;;;;5053087;28;19913;-76
2022/08/08 00:45:32;;;;;;;;;;;;;;;;;;5052754;28;19915;-76
2022/08/08 00:47:57;;;;;;;;;;;;;;;;;;5052725;28;19916;-76
2022/08/08 00:50:22;;;;;;;;;;;;;;;;;;5054283;28;20359;-76
2022/08/08 00:52:47;;;;;;;;;;;;;;;;;;5034064;28;19960;-76
2022/08/08 00:55:12;;;;;;;;;;;;;;;;;;5035204;28;19917;-76
2022/08/08 00:57:39;;;;;;;;;;;;;;;;;;5053229;28;20355;-76
2022/08/08 01:00:05;;;;;;;;;;;;;;;;;;5054821;28;20386;-75
2022/08/08 01:02:30;;;;;;;;;;;;;;;;;;5053500;28;19917;-76
2022/08/08 01:04:55;;;;;;;;;;;;;;;;;;5036379;28;19920;-76
2022/08/08 01:07:20;;;;;;;;;;;;;;;;;;5052323;28;19996;-76
2022/08/08 01:09:45;;;;;;;;;;;;;;;;;;5036958;28;19920;-76
2022/08/08 01:12:10;;;;;;;;;;;;;;;;;;5035792;28;20371;-75
2022/08/08 01:14:35;;;;;;;;;;;;;;;;;;5036660;28;19917;-76
2022/08/08 01:17:00;;;;;;;;;;;;;;;;;;5030812;28;20332;-76
2022/08/08 01:19:26;;;;;;;;;;;;;;;;;;5054063;28;19920;-75
2022/08/08 01:21:51;;;;;;;;;;;;;;;;;;5035596;28;19917;-76
2022/08/08 01:24:16;;;;;;;;;;;;;;;;;;5037199;28;20003;-75
2022/08/08 01:26:41;;;;;;;;;;;;;;;;;;5033028;28;19955;-76
2022/08/08 01:29:06;;;;;;;;;;;;;;;;;;5034634;28;19913;-78
2022/08/08 01:31:31;;;;;;;;;;;;;;;;;;5054353;28;19919;-76
2022/08/08 01:33:57;;;;;;;;;;;;;;;;;;5036464;28;19913;-77
2022/08/08 01:36:22;;;;;;;;;;;;;;;;;;5051757;28;19921;-77
2022/08/08 01:38:47;;;;;;;;;;;;;;;;;;5051172;28;19913;-77
2022/08/08 01:41:13;;;;;;;;;;;;;;;;;;5034415;28;19913;-77
2022/08/08 01:43:38;;;;;;;;;;;;;;;;;;5033080;28;19917;-77
2022/08/08 01:46:03;;;;;;;;;;;;;;;;;;5036314;28;19913;-77
2022/08/08 01:48:28;;;;;;;;;;;;;;;;;;5051096;28;20026;-77
2022/08/08 01:50:54;;;;;;;;;;;;;;;;;;5051788;28;19919;-77
2022/08/08 01:53:19;;;;;;;;;;;;;;;;;;5052954;28;19966;-76
2022/08/08 01:55:44;;;;;;;;;;;;;;;;;;5034620;28;19956;-76
2022/08/08 01:58:09;;;;;;;;;;;;;;;;;;5052243;28;19920;-76
2022/08/08 02:00:34;;;;;;;;;;;;;;;;;;5034374;28;19917;-76
2022/08/08 02:02:59;;;;;;;;;;;;;;;;;;5043734;28;20021;-77
2022/08/08 02:05:25;;;;;;;;;;;;;;;;;;5070740;28;20046;-76
2022/08/08 02:07:50;;;;;;;;;;;;;;;;;;5070561;28;19982;-76
2022/08/08 02:10:15;;;;;;;;;;;;;;;;;;5071904;28;19913;-76
2022/08/08 02:12:40;;;;;;;;;;;;;;;;;;5073932;28;20022;-77
2022/08/08 02:15:08;;;;;;;;;;;;;;;;;;5071835;28;20008;-77
2022/08/08 02:17:33;;;;;;;;;;;;;;;;;;5072427;28;20412;-76
2022/08/08 02:19:58;;;;;;;;;;;;;;;;;;5071710;28;19912;-77
2022/08/08 02:22:33;;;;;;;;;;;;;;;;;;5067670;28;19935;-77
2022/08/08 02:24:58;;;;;;;;;;;;;;;;;;5071173;28;19919;-76
2022/08/08 02:27:23;;;;;;;;;;;;;;;;;;5067641;28;19913;-77
2022/08/08 02:29:48;;;;;;;;;;;;;;;;;;5053313;28;19944;-76
2022/08/08 02:32:13;;;;;;;;;;;;;;;;;;5071791;28;19912;-77
2022/08/08 02:34:38;;;;;;;;;;;;;;;;;;5071668;28;19916;-77
2022/08/08 02:37:03;;;;;;;;;;;;;;;;;;5068274;28;19918;-76
2022/08/08 02:39:29;;;;;;;;;;;;;;;;;;5074107;28;19954;-76
2022/08/08 02:41:54;;;;;;;;;;;;;;;;;;5067864;28;19966;-76
2022/08/08 02:44:24;;;;;;;;;;;;;;;;;;5071422;28;19918;-76
2022/08/08 02:46:49;;;;;;;;;;;;;;;;;;5070472;28;19913;-77
2022/08/08 02:49:15;;;;;;;;;;;;;;;;;;5072771;28;19966;-76
2022/08/08 02:51:40;;;;;;;;;;;;;;;;;;5084443;28;19916;-77
2022/08/08 02:54:05;;;;;;;;;;;;;;;;;;5082303;28;20057;-77
2022/08/08 02:56:30;;;;;;;;;;;;;;;;;;5081680;28;19912;-77
2022/08/08 02:58:55;;;;;;;;;;;;;;;;;;5072050;28;20286;-77
2022/08/08 03:01:20;;;;;;;;;;;;;;;;;;5072567;28;20342;-77
2022/08/08 03:03:45;;;;;;;;;;;;;;;;;;5060101;28;20382;-76
2022/08/08 03:06:10;;;;;;;;;;;;;;;;;;5052377;28;20372;-77
2022/08/08 03:08:36;;;;;;;;;;;;;;;;;;5047499;28;20363;-76
2022/08/08 03:11:01;;;;;;;;;;;;;;;;;;5033886;28;20302;-77
2022/08/08 03:13:26;;;;;;;;;;;;;;;;;;5033966;28;19953;-77
2022/08/08 03:15:51;;;;;;;;;;;;;;;;;;5035276;28;19958;-77
2022/08/08 03:18:16;;;;;;;;;;;;;;;;;;5044548;28;19913;-77
2022/08/08 03:20:43;;;;;;;;;;;;;;;;;;5052060;28;19917;-76
2022/08/08 03:23:09;;;;;;;;;;;;;;;;;;5051119;28;19913;-76
2022/08/08 03:25:35;;;;;;;;;;;;;;;;;;5046996;28;19913;-76
2022/08/08 03:28:00;;;;;;;;;;;;;;;;;;5032193;28;20375;-76
2022/08/08 03:30:25;;;;;;;;;;;;;;;;;;5034204;28;20423;-76
2022/08/08 03:35:34;;;;;;;;;;;;;;;;;;5051255;28;19923;-76
2022/08/08 03:37:59;;;;;;;;;;;;;;;;;;5032263;28;19912;-76
2022/08/08 03:40:24;;;;;;;;;;;;;;;;;;5050668;28;20360;-76
2022/08/08 03:42:49;;;;;;;;;;;;;;;;;;5051018;28;19924;-76
2022/08/08 03:45:14;;;;;;;;;;;;;;;;;;5032796;28;19913;-76
2022/08/08 03:47:39;;;;;;;;;;;;;;;;;;5050950;28;19948;-77
2022/08/08 03:50:05;;;;;;;;;;;;;;;;;;5048559;28;20428;-77
2022/08/08 03:52:30;;;;;;;;;;;;;;;;;;5049970;28;19927;-76
2022/08/08 03:54:55;;;;;;;;;;;;;;;;;;5033803;28;19917;-76
2022/08/08 03:57:20;;;;;;;;;;;;;;;;;;5051229;28;20161;-76
2022/08/08 03:59:45;;;;;;;;;;;;;;;;;;5027916;28;19919;-76
2022/08/08 04:02:10;;;;;;;;;;;;;;;;;;5051743;28;19952;-76
2022/08/08 04:04:35;;;;;;;;;;;;;;;;;;5050979;28;19929;-76
2022/08/08 04:07:01;;;;;;;;;;;;;;;;;;5033287;28;19912;-76
2022/08/08 04:09:26;;;;;;;;;;;;;;;;;;5048106;28;19920;-76
2022/08/08 04:11:51;;;;;;;;;;;;;;;;;;5050249;28;19996;-77
2022/08/08 04:14:16;;;;;;;;;;;;;;;;;;5052178;28;20390;-75
2022/08/08 04:16:41;;;;;;;;;;;;;;;;;;5051694;28;19909;-75
2022/08/08 04:19:06;;;;;;;;;;;;;;;;;;5033703;28;19920;-77
2022/08/08 04:21:31;;;;;;;;;;;;;;;;;;5038659;28;19976;-76
2022/08/08 04:23:56;;;;;;;;;;;;;;;;;;5051861;28;19909;-76
2022/08/08 04:26:22;;;;;;;;;;;;;;;;;;5032245;28;19909;-76
2022/08/08 04:28:47;;;;;;;;;;;;;;;;;;5051139;28;19920;-76
2022/08/08 04:31:12;;;;;;;;;;;;;;;;;;5049516;28;19916;-76
2022/08/08 04:33:37;;;;;;;;;;;;;;;;;;5051986;28;19913;-76
2022/08/08 04:36:02;;;;;;;;;;;;;;;;;;5050787;28;20287;-76
2022/08/08 04:38:28;;;;;;;;;;;;;;;;;;5049366;28;20359;-77
2022/08/08 04:40:53;;;;;;;;;;;;;;;;;;5047778;28;20367;-76
2022/08/08 04:43:18;;;;;;;;;;;;;;;;;;5047490;28;19909;-77
2022/08/08 04:45:43;;;;;;;;;;;;;;;;;;5049777;28;19956;-77
2022/08/08 04:48:08;;;;;;;;;;;;;;;;;;5051159;28;20390;-76
2022/08/08 04:50:33;;;;;;;;;;;;;;;;;;5046138;28;19920;-76
2022/08/08 04:52:58;;;;;;;;;;;;;;;;;;5045675;28;19968;-77
2022/08/08 04:55:23;;;;;;;;;;;;;;;;;;5027514;28;19939;-76
2022/08/08 04:57:49;;;;;;;;;;;;;;;;;;5051061;28;19920;-76
2022/08/08 05:00:14;;;;;;;;;;;;;;;;;;5050004;28;20062;-76
2022/08/08 05:02:39;;;;;;;;;;;;;;;;;;5018756;28;20000;-76
2022/08/08 05:05:04;;;;;;;;;;;;;;;;;;5048177;28;19917;-76
2022/08/08 05:07:29;;;;;;;;;;;;;;;;;;5031762;28;19920;-76
2022/08/08 05:09:54;;;;;;;;;;;;;;;;;;5050016;28;20132;-76
2022/08/08 05:12:19;;;;;;;;;;;;;;;;;;5028102;28;19950;-77
2022/08/08 05:14:44;;;;;;;;;;;;;;;;;;5051662;28;19920;-76
2022/08/08 05:17:10;;;;;;;;;;;;;;;;;;5050988;28;19920;-76
2022/08/08 05:19:36;;;;;;;;;;;;;;;;;;5049799;28;20012;-76
2022/08/08 05:22:01;;;;;;;;;;;;;;;;;;5042161;28;19939;-75
2022/08/08 05:24:26;;;;;;;;;;;;;;;;;;5037631;28;19912;-76
2022/08/08 05:26:52;;;;;;;;;;;;;;;;;;5036876;28;19909;-77
2022/08/08 05:29:17;;;;;;;;;;;;;;;;;;5051447;28;19999;-77
2022/08/08 05:31:42;;;;;;;;;;;;;;;;;;5051700;28;19959;-76
2022/08/08 05:34:07;;;;;;;;;;;;;;;;;;5052748;28;19916;-77
2022/08/08 05:36:32;;;;;;;;;;;;;;;;;;5035391;28;19920;-76
2022/08/08 05:38:58;;;;;;;;;;;;;;;;;;5055083;28;20290;-76
2022/08/08 05:41:23;;;;;;;;;;;;;;;;;;5020409;28;20364;-77
2022/08/08 05:43:48;;;;;;;;;;;;;;;;;;5051540;28;19920;-76
2022/08/08 05:46:13;;;;;;;;;;;;;;;;;;5035369;28;19916;-77
2022/08/08 05:48:38;;;;;;;;;;;;;;;;;;5054957;28;19913;-77
2022/08/08 05:51:03;;;;;;;;;;;;;;;;;;5032486;28;20383;-77
2022/08/08 05:53:29;;;;;;;;;;;;;;;;;;5051533;28;20446;-77
2022/08/08 05:55:54;;;;;;;;;;;;;;;;;;5053058;28;19986;-77
2022/08/08 05:58:19;;;;;;;;;;;;;;;;;;5050924;28;19913;-76
2022/08/08 06:00:44;;;;;;;;;;;;;;;;;;5053949;28;19913;-76
2022/08/08 06:03:09;;;;;;;;;;;;;;;;;;5052184;28;20516;-75
2022/08/08 06:05:34;;;;;;;;;;;;;;;;;;5048578;28;19922;-76
2022/08/08 06:07:59;;;;;;;;;;;;;;;;;;5029533;28;20461;-76
2022/08/08 06:10:25;;;;;;;;;;;;;;;;;;5039889;28;19963;-75
2022/08/08 06:12:50;;;;;;;;;;;;;;;;;;5035535;28;20395;-75
2022/08/08 06:15:15;;;;;;;;;;;;;;;;;;5050576;28;19921;-75
2022/08/08 06:17:40;;;;;;;;;;;;;;;;;;5030886;28;19917;-76
2022/08/08 06:20:05;;;;;;;;;;;;;;;;;;5045378;28;19913;-75
2022/08/08 06:22:30;;;;;;;;;;;;;;;;;;5048213;28;20360;-79
2022/08/08 06:24:56;;;;;;;;;;;;;;;;;;5049333;28;19935;-75
2022/08/08 06:27:21;;;;;;;;;;;;;;;;;;5046218;28;19960;-75
2022/08/08 06:29:46;;;;;;;;;;;;;;;;;;5051270;28;19920;-75
2022/08/08 06:32:11;;;;;;;;;;;;;;;;;;5051707;28;20439;-75
2022/08/08 06:34:36;;;;;;;;;;;;;;;;;;5035440;28;19912;-75
2022/08/08 06:37:02;;;;;;;;;;;;;;;;;;5030380;28;19913;-75
2022/08/08 06:39:27;;;;;;;;;;;;;;;;;;5035787;28;19908;-75
2022/08/08 06:41:52;;;;;;;;;;;;;;;;;;5035189;28;20332;-75
2022/08/08 06:44:17;;;;;;;;;;;;;;;;;;5035736;28;19960;-75
2022/08/08 06:46:43;;;;;;;;;;;;;;;;;;5051774;28;19912;-75
2022/08/08 06:49:08;;;;;;;;;;;;;;;;;;5035596;28;19915;-75
2022/08/08 06:51:33;;;;;;;;;;;;;;;;;;5051359;28;19912;-75
2022/08/08 06:53:58;;;;;;;;;;;;;;;;;;5024286;28;20306;-74
2022/08/08 06:56:23;;;;;;;;;;;;;;;;;;5036734;28;19913;-75
2022/08/08 06:58:49;;;;;;;;;;;;;;;;;;5051670;28;20244;-75
2022/08/08 07:01:14;;;;;;;;;;;;;;;;;;5031583;28;19967;-75
2022/08/08 07:03:39;;;;;;;;;;;;;;;;;;5045990;28;19920;-75
2022/08/08 07:06:04;;;;;;;;;;;;;;;;;;5072217;28;20003;-75
2022/08/08 07:08:29;;;;;;;;;;;;;;;;;;5070487;28;19916;-75
2022/08/08 07:10:54;;;;;;;;;;;;;;;;;;5070664;28;19912;-75
2022/08/08 07:13:20;;;;;;;;;;;;;;;;;;5070008;28;20034;-75
2022/08/08 07:15:45;;;;;;;;;;;;;;;;;;5070904;28;19916;-75
2022/08/08 07:18:10;;;;;;;;;;;;;;;;;;5067093;28;19962;-75
2022/08/08 07:20:35;;;;;;;;;;;;;;;;;;5060533;28;20283;-75
2022/08/08 07:23:01;;;;;;;;;;;;;;;;;;5067222;28;19912;-75
2022/08/08 07:25:26;;;;;;;;;;;;;;;;;;5069869;28;19999;-75
2022/08/08 07:27:51;;;;;;;;;;;;;;;;;;5068227;28;20363;-74
2022/08/08 07:30:16;;;;;;;;;;;;;;;;;;5069482;28;19916;-75
2022/08/08 07:32:41;;;;;;;;;;;;;;;;;;5070709;28;19912;-75
2022/08/08 07:35:07;;;;;;;;;;;;;;;;;;5070752;28;19917;-75
2022/08/08 07:37:32;;;;;;;;;;;;;;;;;;5070135;28;20003;-74
2022/08/08 07:39:57;;;;;;;;;;;;;;;;;;5070960;28;19913;-75
2022/08/08 07:42:22;;;;;;;;;;;;;;;;;;5069926;28;19919;-75
2022/08/08 07:44:47;;;;;;;;;;;;;;;;;;5068747;28;20010;-76
2022/08/08 07:47:12;;;;;;;;;;;;;;;;;;5070725;28;19912;-76
2022/08/08 07:49:38;;;;;;;;;;;;;;;;;;5070096;28;19912;-75
2022/08/08 07:52:03;;;;;;;;;;;;;;;;;;5060955;28;19924;-75
2022/08/08 07:54:28;;;;;;;;;;;;;;;;;;5066700;28;20011;-75
2022/08/08 07:56:54;;;;;;;;;;;;;;;;;;5069425;28;19921;-76
2022/08/08 07:59:19;;;;;;;;;;;;;;;;;;5071607;28;19917;-76
2022/08/08 08:01:44;;;;;;;;;;;;;;;;;;5070134;28;19985;-76
2022/08/08 08:04:09;;;;;;;;;;;;;;;;;;5065839;28;19924;-75
2022/08/08 08:06:35;;;;;;;;;;;;;;;;;;5068655;28;20414;-76
2022/08/08 08:09:01;;;;;;;;;;;;;;;;;;5067666;28;19916;-75
2022/08/08 08:11:26;;;;;;;;;;;;;;;;;;5069370;28;19966;-76
2022/08/08 08:13:51;;;;;;;;;;;;;;;;;;5068778;28;19912;-75
2022/08/08 08:16:16;;;;;;;;;;;;;;;;;;5070829;28;21832;-75
2022/08/08 08:18:41;;;;;;;;;;;;;;;;;;5071232;28;20031;-76
2022/08/08 08:21:07;;;;;;;;;;;;;;;;;;5067288;28;19916;-76
2022/08/08 08:23:32;;;;;;;;;;;;;;;;;;5069043;28;20389;-76
2022/08/08 08:25:57;;;;;;;;;;;;;;;;;;5070357;28;19920;-76
2022/08/08 08:28:23;;;;;;;;;;;;;;;;;;5071442;28;19978;-76
2022/08/08 08:30:48;;;;;;;;;;;;;;;;;;5070961;28;19960;-76
2022/08/08 08:33:13;;;;;;;;;;;;;;;;;;5068585;28;19920;-76
2022/08/08 08:35:38;;;;;;;;;;;;;;;;;;5069497;28;20286;-76
2022/08/08 08:38:03;;;;;;;;;;;;;;;;;;5068902;28;20434;-76
2022/08/08 08:40:29;;;;;;;;;;;;;;;;;;5070636;28;19920;-76
2022/08/08 08:42:54;;;;;;;;;;;;;;;;;;5070065;28;19981;-76
2022/08/08 08:45:19;;;;;;;;;;;;;;;;;;5066034;28;19912;-76
2022/08/08 08:47:44;;;;;;;;;;;;;;;;;;5066255;28;19917;-76
2022/08/08 08:50:09;;;;;;;;;;;;;;;;;;5069635;28;20367;-75
2022/08/08 08:52:34;;;;;;;;;;;;;;;;;;5058565;28;19921;-75
2022/08/08 08:55:00;;;;;;;;;;;;;;;;;;5068927;28;20034;-76
2022/08/08 08:57:25;;;;;;;;;;;;;;;;;;5070829;28;19913;-74
2022/08/08 08:59:50;;;;;;;;;;;;;;;;;;5074169;28;20329;-74
2022/08/08 09:02:15;;;;;;;;;;;;;;;;;;5063816;28;20015;-75
2022/08/08 09:04:41;;;;;;;;;;;;;;;;;;5064432;28;19924;-75
2022/08/08 09:07:06;;;;;;;;;;;;;;;;;;5060609;28;19913;-75
2022/08/08 09:09:31;;;;;;;;;;;;;;;;;;5064221;28;20055;-75
2022/08/08 09:11:56;;;;;;;;;;;;;;;;;;5069486;28;20343;-75
2022/08/08 09:14:21;;;;;;;;;;;;;;;;;;5067229;28;19925;-75
2022/08/08 09:16:47;;;;;;;;;;;;;;;;;;5064101;28;19916;-75
2022/08/08 09:19:12;;;;;;;;;;;;;;;;;;5063247;28;19921;-75
2022/08/08 09:21:37;;;;;;;;;;;;;;;;;;5059873;28;20009;-75
2022/08/08 09:24:02;;;;;;;;;;;;;;;;;;5064584;28;19912;-75
2022/08/08 09:26:27;;;;;;;;;;;;;;;;;;5072464;28;19920;-75
2022/08/08 09:28:52;;;;;;;;;;;;;;;;;;5072983;28;19924;-75
2022/08/08 09:31:17;;;;;;;;;;;;;;;;;;5072439;28;19913;-76
2022/08/08 09:33:42;;;;;;;;;;;;;;;;;;5073397;28;20006;-75
2022/08/08 09:36:08;;;;;;;;;;;;;;;;;;5071186;28;20025;-75
2022/08/08 09:38:33;;;;;;;;;;;;;;;;;;5074043;28;20371;-75
2022/08/08 09:40:58;;;;;;;;;;;;;;;;;;5074627;28;20011;-75
2022/08/08 09:43:23;;;;;;;;;;;;;;;;;;5071241;28;20366;-74
2022/08/08 09:45:48;;;;;;;;;;;;;;;;;;5072699;28;20003;-75
2022/08/08 09:48:13;;;;;;;;;;;;;;;;;;5073547;28;19919;-76
2022/08/08 09:50:38;;;;;;;;;;;;;;;;;;5070016;28;19912;-76
2022/08/08 09:53:05;;;;;;;;;;;;;;;;;;5070715;28;20003;-75
2022/08/08 09:55:30;;;;;;;;;;;;;;;;;;5072715;28;20370;-75
2022/08/08 09:57:55;;;;;;;;;;;;;;;;;;5072025;28;19912;-75
2022/08/08 10:00:20;;;;;;;;;;;;;;;;;;5071285;28;19912;-75
2022/08/08 10:02:45;;;;;;;;;;;;;;;;;;5070467;28;20358;-75
2022/08/08 10:05:11;;;;;;;;;;;;;;;;;;5071946;28;20282;-76
2022/08/08 10:07:37;;;;;;;;;;;;;;;;;;5070060;28;19917;-75
2022/08/08 10:10:02;;;;;;;;;;;;;;;;;;5070872;28;20167;-75
2022/08/08 10:12:27;;;;;;;;;;;;;;;;;;5071848;28;19916;-76
2022/08/08 10:14:52;;;;;;;;;;;;;;;;;;5070362;28;20011;-75
2022/08/08 10:17:17;;;;;;;;;;;;;;;;;;5072468;28;19912;-75
2022/08/08 10:19:42;;;;;;;;;;;;;;;;;;5073733;28;19920;-76
2022/08/08 10:22:07;;;;;;;;;;;;;;;;;;5070186;28;19912;-76
2022/08/08 10:24:33;;;;;;;;;;;;;;;;;;5070554;28;19951;-75
2022/08/08 10:26:58;;;;;;;;;;;;;;;;;;5073406;28;19919;-76
2022/08/08 10:29:23;;;;;;;;;;;;;;;;;;5071550;28;20008;-76
2022/08/08 10:34:32;;;;;;;;;;;;;;;;;;5067125;28;19924;-76
2022/08/08 10:36:57;;;;;;;;;;;;;;;;;;5066989;28;19916;-76
2022/08/08 10:39:22;;;;;;;;;;;;;;;;;;5065618;28;20440;-77
2022/08/08 10:41:47;;;;;;;;;;;;;;;;;;5066792;28;19936;-75
2022/08/08 10:44:12;;;;;;;;;;;;;;;;;;5063349;28;19913;-76
2022/08/08 10:46:38;;;;;;;;;;;;;;;;;;5064832;28;19913;-76
2022/08/08 10:49:03;;;;;;;;;;;;;;;;;;5069448;28;19916;-76
2022/08/08 10:51:28;;;;;;;;;;;;;;;;;;5064478;28;20041;-75
2022/08/08 10:53:54;;;;;;;;;;;;;;;;;;5069559;28;19912;-76
2022/08/08 10:56:19;;;;;;;;;;;;;;;;;;5066834;28;19918;-76
2022/08/08 10:58:44;;;;;;;;;;;;;;;;;;5072901;28;20105;-75
2022/08/08 11:01:09;;;;;;;;;;;;;;;;;;5067780;28;20244;-75
2022/08/08 11:03:34;;;;;;;;;;;;;;;;;;5060352;28;19928;-76
2022/08/08 11:05:59;;;;;;;;;;;;;;;;;;5063705;28;19967;-76
2022/08/08 11:08:27;;;;;;;;;;;;;;;;;;5058309;28;19951;-76
2022/08/08 11:10:52;;;;;;;;;;;;;;;;;;5065283;28;19999;-76
2022/08/08 11:13:17;;;;;;;;;;;;;;;;;;5062236;28;20011;-76
2022/08/08 11:15:42;;;;;;;;;;;;;;;;;;5061728;28;20408;-75
2022/08/08 11:18:07;;;;;;;;;;;;;;;;;;5060378;28;20301;-74
2022/08/08 11:20:32;;;;;;;;;;;;;;;;;;5064335;28;19919;-74
2022/08/08 11:22:57;;;;;;;;;;;;;;;;;;5069057;28;19912;-74
2022/08/08 11:25:23;;;;;;;;;;;;;;;;;;5070093;28;19959;-75
2022/08/08 11:27:48;;;;;;;;;;;;;;;;;;5069731;28;20405;-75
2022/08/08 11:30:13;;;;;;;;;;;;;;;;;;5055274;28;19915;-75
2022/08/08 11:32:38;;;;;;;;;;;;;;;;;;5066245;28;19958;-76
2022/08/08 11:35:03;;;;;;;;;;;;;;;;;;5070284;28;19970;-76
2022/08/08 11:37:28;;;;;;;;;;;;;;;;;;5070859;28;19931;-76
2022/08/08 11:39:54;;;;;;;;;;;;;;;;;;5068348;28;19912;-75
2022/08/08 11:42:19;;;;;;;;;;;;;;;;;;5063199;28;19912;-75
2022/08/08 11:44:44;;;;;;;;;;;;;;;;;;5070755;28;19913;-75
2022/08/08 11:47:09;;;;;;;;;;;;;;;;;;5069768;28;19908;-75
2022/08/08 11:49:34;;;;;;;;;;;;;;;;;;5062752;28;19920;-75
2022/08/08 11:52:00;;;;;;;;;;;;;;;;;;5067549;28;19919;-75
2022/08/08 11:54:25;;;;;;;;;;;;;;;;;;5070420;28;20029;-75
2022/08/08 11:56:50;;;;;;;;;;;;;;;;;;5067077;28;20355;-75
2022/08/08 11:59:15;;;;;;;;;;;;;;;;;;5069554;28;19943;-75
2022/08/08 12:01:40;;;;;;;;;;;;;;;;;;5062223;28;19912;-75
2022/08/08 12:04:05;;;;;;;;;;;;;;;;;;5062781;28;20336;-75
2022/08/08 12:06:33;;;;;;;;;;;;;;;;;;5068010;28;19916;-75
2022/08/08 12:08:58;;;;;;;;;;;;;;;;;;5064741;28;19913;-75
2022/08/08 12:11:24;;;;;;;;;;;;;;;;;;5066198;28;19919;-75
2022/08/08 12:13:49;;;;;;;;;;;;;;;;;;5068649;28;19919;-75
2022/08/08 12:16:17;;;;;;;;;;;;;;;;;;5062571;28;20079;-75
2022/08/08 12:18:43;;;;;;;;;;;;;;;;;;5061183;28;19916;-75
2022/08/08 12:21:08;;;;;;;;;;;;;;;;;;5054469;28;19921;-76
2022/08/08 12:23:33;;;;;;;;;;;;;;;;;;5061073;28;20278;-75
2022/08/08 12:25:58;;;;;;;;;;;;;;;;;;5062988;28;19982;-75
2022/08/08 12:28:23;;;;;;;;;;;;;;;;;;5067667;28;19981;-75
2022/08/08 12:30:48;;;;;;;;;;;;;;;;;;5070033;28;20006;-75
2022/08/08 12:33:13;;;;;;;;;;;;;;;;;;5067436;28;19912;-74
2022/08/08 12:35:38;;;;;;;;;;;;;;;;;;5073002;28;19920;-74
2022/08/08 12:38:06;;;;;;;;;;;;;;;;;;5069043;28;19920;-75
2022/08/08 12:40:32;;;;;;;;;;;;;;;;;;5075210;28;19916;-74
2022/08/08 12:42:57;;;;;;;;;;;;;;;;;;5072573;28;19920;-75
2022/08/08 12:45:22;;;;;;;;;;;;;;;;;;5073251;28;19998;-75
2022/08/08 12:47:47;;;;;;;;;;;;;;;;;;5074613;28;19973;-75
2022/08/08 12:50:12;;;;;;;;;;;;;;;;;;5072304;28;20382;-75
2022/08/08 12:52:38;;;;;;;;;;;;;;;;;;5070010;28;19912;-75
2022/08/08 12:55:04;;;;;;;;;;;;;;;;;;5072651;28;19916;-75
2022/08/08 12:57:29;;;;;;;;;;;;;;;;;;5074540;28;19912;-75
2022/08/08 12:59:54;;;;;;;;;;;;;;;;;;5074911;28;19912;-75
2022/08/08 13:02:19;;;;;;;;;;;;;;;;;;5073500;28;19958;-75
2022/08/08 13:04:44;;;;;;;;;;;;;;;;;;5052162;28;19921;-76
2022/08/08 13:07:12;;;;;;;;;;;;;;;;;;5033487;28;19916;-75
2022/08/08 13:09:37;;;;;;;;;;;;;;;;;;5048011;28;19913;-75
2022/08/08 13:12:02;;;;;;;;;;;;;;;;;;5053047;28;19959;-75
2022/08/08 13:14:27;;;;;;;;;;;;;;;;;;5051595;28;21490;-75
2022/08/08 13:16:52;;;;;;;;;;;;;;;;;;5052855;28;19912;-75
2022/08/08 13:19:17;;;;;;;;;;;;;;;;;;5035812;28;19994;-75
2022/08/08 13:21:43;;;;;;;;;;;;;;;;;;5034709;28;20294;-75
2022/08/08 13:24:08;;;;;;;;;;;;;;;;;;5033305;28;20386;-75
2022/08/08 13:26:33;;;;;;;;;;;;;;;;;;5029833;28;20034;-78
2022/08/08 13:28:58;;;;;;;;;;;;;;;;;;5044277;28;19924;-75
2022/08/08 13:31:23;;;;;;;;;;;;;;;;;;5048336;28;20283;-75
2022/08/08 13:33:49;;;;;;;;;;;;;;;;;;5051725;28;19916;-75
2022/08/08 13:36:14;;;;;;;;;;;;;;;;;;5045652;28;19924;-75
2022/08/08 13:38:39;;;;;;;;;;;;;;;;;;5045886;28;20523;-76
2022/08/08 13:41:05;;;;;;;;;;;;;;;;;;5051205;28;19913;-76
2022/08/08 13:43:30;;;;;;;;;;;;;;;;;;5023730;28;19959;-75
2022/08/08 13:45:55;;;;;;;;;;;;;;;;;;5027124;28;19913;-75
2022/08/08 13:48:20;;;;;;;;;;;;;;;;;;5030245;28;19925;-75
2022/08/08 13:50:45;;;;;;;;;;;;;;;;;;5044669;28;19927;-75
2022/08/08 13:53:10;;;;;;;;;;;;;;;;;;5033680;28;20414;-75
2022/08/08 13:55:36;;;;;;;;;;;;;;;;;;5022787;28;19913;-75
2022/08/08 13:58:01;;;;;;;;;;;;;;;;;;5032833;28;20127;-75
2022/08/08 14:00:26;;;;;;;;;;;;;;;;;;5030352;28;19917;-75
2022/08/08 14:02:52;;;;;;;;;;;;;;;;;;5037905;28;19924;-75
2022/08/08 14:05:18;;;;;;;;;;;;;;;;;;5069949;28;20000;-75
2022/08/08 14:07:43;;;;;;;;;;;;;;;;;;5066587;28;19948;-75
2022/08/08 14:10:08;;;;;;;;;;;;;;;;;;5065123;28;19959;-75
2022/08/08 14:12:34;;;;;;;;;;;;;;;;;;5067776;28;19917;-75
2022/08/08 14:15:00;;;;;;;;;;;;;;;;;;5068245;28;19917;-75
2022/08/08 14:17:25;;;;;;;;;;;;;;;;;;5064411;28;19913;-76
2022/08/08 14:19:50;;;;;;;;;;;;;;;;;;5062737;28;19913;-76
2022/08/08 14:22:15;;;;;;;;;;;;;;;;;;5066930;28;20370;-75
2022/08/08 14:24:40;;;;;;;;;;;;;;;;;;5068616;28;20374;-75
2022/08/08 14:27:05;;;;;;;;;;;;;;;;;;5069502;28;19917;-75
2022/08/08 14:29:30;;;;;;;;;;;;;;;;;;5070752;28;20015;-75
2022/08/08 14:31:56;;;;;;;;;;;;;;;;;;5069579;28;19912;-75
2022/08/08 14:34:21;;;;;;;;;;;;;;;;;;5070076;28;19958;-75
2022/08/08 14:36:46;;;;;;;;;;;;;;;;;;5067545;28;21451;-75
2022/08/08 14:39:11;;;;;;;;;;;;;;;;;;5071658;28;20311;-75
2022/08/08 14:41:36;;;;;;;;;;;;;;;;;;5065445;28;19912;-75
2022/08/08 14:44:01;;;;;;;;;;;;;;;;;;5068443;28;20179;-75
2022/08/08 14:46:27;;;;;;;;;;;;;;;;;;5068899;28;19912;-75
2022/08/08 14:48:52;;;;;;;;;;;;;;;;;;5070309;28;19923;-75
2022/08/08 14:51:20;;;;;;;;;;;;;;;;;;5064528;28;20317;-75
2022/08/08 14:53:45;;;;;;;;;;;;;;;;;;5070279;28;19912;-75
2022/08/08 14:56:10;;;;;;;;;;;;;;;;;;5068846;28;19938;-75
2022/08/08 14:58:36;;;;;;;;;;;;;;;;;;5069328;28;19989;-75
2022/08/08 15:01:01;;;;;;;;;;;;;;;;;;5065316;28;19954;-76
2022/08/08 15:03:26;;;;;;;;;;;;;;;;;;5065815;28;19920;-76
2022/08/08 15:05:51;;;;;;;;;;;;;;;;;;5066918;28;20397;-75
2022/08/08 15:08:16;;;;;;;;;;;;;;;;;;5062765;28;19956;-75
2022/08/08 15:10:41;;;;;;;;;;;;;;;;;;5066501;28;19917;-75
2022/08/08 15:13:07;;;;;;;;;;;;;;;;;;5071778;28;20364;-75
2022/08/08 15:15:32;;;;;;;;;;;;;;;;;;5071149;28;19925;-75
2022/08/08 15:17:57;;;;;;;;;;;;;;;;;;5072572;28;19913;-75
2022/08/08 15:20:22;;;;;;;;;;;;;;;;;;5069079;28;19917;-75
2022/08/08 15:22:47;;;;;;;;;;;;;;;;;;5067312;28;19909;-75
2022/08/08 15:25:13;;;;;;;;;;;;;;;;;;5068627;28;19912;-75
2022/08/08 15:27:39;;;;;;;;;;;;;;;;;;5071022;28;19912;-75
2022/08/08 15:30:04;;;;;;;;;;;;;;;;;;5072107;28;19919;-77
2022/08/08 15:32:29;;;;;;;;;;;;;;;;;;5070950;28;20022;-75
2022/08/08 15:34:55;;;;;;;;;;;;;;;;;;5063389;28;19923;-75
2022/08/08 15:37:20;;;;;;;;;;;;;;;;;;5070669;28;19937;-75
2022/08/08 15:39:45;;;;;;;;;;;;;;;;;;5071897;28;19919;-75
2022/08/08 15:42:10;;;;;;;;;;;;;;;;;;5071905;28;19912;-74
2022/08/08 15:44:35;;;;;;;;;;;;;;;;;;5070740;28;20329;-74
2022/08/08 15:47:00;;;;;;;;;;;;;;;;;;5072024;28;19919;-75
2022/08/08 15:49:26;;;;;;;;;;;;;;;;;;5071764;28;19912;-74
2022/08/08 15:51:51;;;;;;;;;;;;;;;;;;5066851;28;19919;-73
2022/08/08 15:54:16;;;;;;;;;;;;;;;;;;5068507;28;19955;-74
2022/08/08 15:56:41;;;;;;;;;;;;;;;;;;5063668;28;19916;-75
2022/08/08 15:59:06;;;;;;;;;;;;;;;;;;5065337;28;19939;-73
2022/08/08 16:01:31;;;;;;;;;;;;;;;;;;5071586;28;20336;-74
2022/08/08 16:03:56;;;;;;;;;;;;;;;;;;5056833;28;19974;-74
2022/08/08 16:06:22;;;;;;;;;;;;;;;;;;5043847;28;19956;-74
2022/08/08 16:08:47;;;;;;;;;;;;;;;;;;5050872;28;19913;-74
2022/08/08 16:11:12;;;;;;;;;;;;;;;;;;5051717;28;19924;-74
2022/08/08 16:13:37;;;;;;;;;;;;;;;;;;5024901;28;19914;-74
2022/08/08 16:16:02;;;;;;;;;;;;;;;;;;5032450;28;19921;-74
2022/08/08 16:18:27;;;;;;;;;;;;;;;;;;5033547;28;19920;-74
2022/08/08 16:20:52;;;;;;;;;;;;;;;;;;5045490;28;19921;-74
2022/08/08 16:23:17;;;;;;;;;;;;;;;;;;5030389;28;19920;-74
2022/08/08 16:25:43;;;;;;;;;;;;;;;;;;5045668;28;19923;-74
2022/08/08 16:28:08;;;;;;;;;;;;;;;;;;5047694;28;19913;-74
2022/08/08 16:30:33;;;;;;;;;;;;;;;;;;5045595;28;19920;-75
2022/08/08 16:32:58;;;;;;;;;;;;;;;;;;5019261;28;20818;-74
2022/08/08 16:35:23;;;;;;;;;;;;;;;;;;5047533;28;19917;-74
2022/08/08 16:37:48;;;;;;;;;;;;;;;;;;5044281;28;20039;-74